sensor_id;sensor_type;location;lat;lon;timestamp;pressure;altitude;pressure_sealevel;temperature;humidity
84528;BME280;74768;51.152;6.196;2023-12-20T00:00:39;100937.53;;;6.90;100.00
84528;BME280;74768;51.152;6.196;2023-12-20T00:03:04;100950.72;;;6.87;100.00
84528;BME280;74768;51.152;6.196;2023-12-20T00:05:30;100953.44;;;6.84;100.00
84528;BME280;74768;51.152;6.196;2023-12-20T00:07:57;100956.03;;;6.84;100.00
84528;BME280;74768;51.152;6.196;2023-12-20T00:10:22;100959.50;;;6.86;100.00
84528;BME280;74768;51.152;6.196;2023-12-20T00:12:48;100960.28;;;6.89;100.00
84528;BME280;74768;51.152;6.196;2023-12-20T00:15:13;100970.63;;;6.95;100.00
84528;BME280;74768;51.152;6.196;2023-12-20T00:17:38;100966.97;;;7.02;100.00
84528;BME280;74768;51.152;6.196;2023-12-20T00:20:04;100956.41;;;7.07;100.00
84528;BME280;74768;51.152;6.196;2023-12-20T00:22:31;100966.03;;;7.07;100.00
84528;BME280;74768;51.152;6.196;2023-12-20T00:24:56;100977.44;;;7.04;100.00
84528;BME280;74768;51.152;6.196;2023-12-20T00:27:21;100981.84;;;7.03;100.00
84528;BME280;74768;51.152;6.196;2023-12-20T00:29:46;100972.28;;;7.01;100.00
84528;BME280;74768;51.152;6.196;2023-12-20T00:32:15;100975.88;;;6.97;100.00
84528;BME280;74768;51.152;6.196;2023-12-20T00:34:40;100973.44;;;6.88;99.55
84528;BME280;74768;51.152;6.196;2023-12-20T00:37:05;100977.22;;;6.75;99.25
84528;BME280;74768;51.152;6.196;2023-12-20T00:39:31;100980.97;;;6.63;99.59
84528;BME280;74768;51.152;6.196;2023-12-20T00:41:56;100996.91;;;6.54;99.76
84528;BME280;74768;51.152;6.196;2023-12-20T00:44:21;101010.00;;;6.55;99.81
84528;BME280;74768;51.152;6.196;2023-12-20T00:46:46;101007.22;;;6.61;100.00
84528;BME280;74768;51.152;6.196;2023-12-20T00:49:12;101000.25;;;6.60;100.00
84528;BME280;74768;51.152;6.196;2023-12-20T00:51:37;100995.13;;;6.56;100.00
84528;BME280;74768;51.152;6.196;2023-12-20T00:54:02;101004.63;;;6.60;99.38
84528;BME280;74768;51.152;6.196;2023-12-20T00:56:27;101009.19;;;6.50;99.53
84528;BME280;74768;51.152;6.196;2023-12-20T00:58:53;101018.06;;;6.45;98.68
84528;BME280;74768;51.152;6.196;2023-12-20T01:01:18;101012.97;;;6.37;98.86
84528;BME280;74768;51.152;6.196;2023-12-20T01:03:43;101023.69;;;6.25;98.89
84528;BME280;74768;51.152;6.196;2023-12-20T01:06:08;101015.25;;;6.08;98.80
84528;BME280;74768;51.152;6.196;2023-12-20T01:08:34;101015.38;;;6.00;98.72
84528;BME280;74768;51.152;6.196;2023-12-20T01:11:00;101017.00;;;6.07;99.15
84528;BME280;74768;51.152;6.196;2023-12-20T01:13:25;101017.00;;;6.07;99.07
84528;BME280;74768;51.152;6.196;2023-12-20T01:15:50;101013.59;;;6.04;98.99
84528;BME280;74768;51.152;6.196;2023-12-20T01:18:16;101006.72;;;5.98;98.42
84528;BME280;74768;51.152;6.196;2023-12-20T01:20:41;101007.59;;;5.99;98.54
84528;BME280;74768;51.152;6.196;2023-12-20T01:23:06;101007.66;;;5.93;98.24
84528;BME280;74768;51.152;6.196;2023-12-20T01:25:31;101007.88;;;5.77;98.38
84528;BME280;74768;51.152;6.196;2023-12-20T01:27:57;100997.63;;;5.67;98.54
84528;BME280;74768;51.152;6.196;2023-12-20T01:30:22;101005.72;;;5.52;98.61
84528;BME280;74768;51.152;6.196;2023-12-20T01:32:47;101006.72;;;5.41;98.74
84528;BME280;74768;51.152;6.196;2023-12-20T01:35:12;101015.63;;;5.33;99.32
84528;BME280;74768;51.152;6.196;2023-12-20T01:37:38;101009.59;;;5.26;99.06
84528;BME280;74768;51.152;6.196;2023-12-20T01:40:04;101008.00;;;5.18;99.27
84528;BME280;74768;51.152;6.196;2023-12-20T01:42:29;101017.63;;;5.13;98.85
84528;BME280;74768;51.152;6.196;2023-12-20T01:44:55;101022.09;;;5.04;98.83
84528;BME280;74768;51.152;6.196;2023-12-20T01:47:20;101018.78;;;4.93;99.43
84528;BME280;74768;51.152;6.196;2023-12-20T01:49:46;101015.47;;;4.81;99.70
84528;BME280;74768;51.152;6.196;2023-12-20T01:52:12;101022.56;;;4.73;99.66
84528;BME280;74768;51.152;6.196;2023-12-20T01:54:38;101026.19;;;4.59;99.62
84528;BME280;74768;51.152;6.196;2023-12-20T01:57:06;101031.44;;;4.56;99.50
84528;BME280;74768;51.152;6.196;2023-12-20T01:59:32;101031.38;;;4.62;100.00
84528;BME280;74768;51.152;6.196;2023-12-20T02:01:58;101039.97;;;4.72;100.00
84528;BME280;74768;51.152;6.196;2023-12-20T02:04:24;101045.13;;;4.78;100.00
84528;BME280;74768;51.152;6.196;2023-12-20T02:06:52;101041.53;;;4.88;100.00
84528;BME280;74768;51.152;6.196;2023-12-20T02:09:18;101030.97;;;4.94;100.00
84528;BME280;74768;51.152;6.196;2023-12-20T02:11:43;101030.97;;;4.96;100.00
84528;BME280;74768;51.152;6.196;2023-12-20T02:14:08;101033.50;;;5.00;100.00
84528;BME280;74768;51.152;6.196;2023-12-20T02:16:34;101022.97;;;5.05;100.00
84528;BME280;74768;51.152;6.196;2023-12-20T02:18:59;101029.06;;;5.05;100.00
84528;BME280;74768;51.152;6.196;2023-12-20T02:21:25;101037.84;;;5.03;100.00
84528;BME280;74768;51.152;6.196;2023-12-20T02:23:56;101036.88;;;5.10;100.00
84528;BME280;74768;51.152;6.196;2023-12-20T02:26:21;101037.66;;;5.17;100.00
84528;BME280;74768;51.152;6.196;2023-12-20T02:28:47;101044.53;;;5.22;100.00
84528;BME280;74768;51.152;6.196;2023-12-20T02:31:12;101034.97;;;5.20;100.00
84528;BME280;74768;51.152;6.196;2023-12-20T02:33:37;101042.03;;;5.15;100.00
84528;BME280;74768;51.152;6.196;2023-12-20T02:36:06;101044.72;;;5.10;100.00
84528;BME280;74768;51.152;6.196;2023-12-20T02:38:31;101041.44;;;4.96;99.87
84528;BME280;74768;51.152;6.196;2023-12-20T02:40:56;101049.41;;;4.85;99.87
84528;BME280;74768;51.152;6.196;2023-12-20T02:43:22;101049.41;;;4.85;100.00
84528;BME280;74768;51.152;6.196;2023-12-20T02:45:47;101051.22;;;4.80;100.00
84528;BME280;74768;51.152;6.196;2023-12-20T02:48:12;101033.81;;;4.76;99.90
84528;BME280;74768;51.152;6.196;2023-12-20T02:50:37;101038.22;;;4.74;100.00
84528;BME280;74768;51.152;6.196;2023-12-20T02:53:03;101043.50;;;4.68;100.00
84528;BME280;74768;51.152;6.196;2023-12-20T02:55:28;101041.75;;;4.70;100.00
84528;BME280;74768;51.152;6.196;2023-12-20T02:57:53;101047.75;;;4.78;100.00
84528;BME280;74768;51.152;6.196;2023-12-20T03:00:19;101046.75;;;4.88;100.00
84528;BME280;74768;51.152;6.196;2023-12-20T03:02:44;101040.50;;;5.00;100.00
84528;BME280;74768;51.152;6.196;2023-12-20T03:05:09;101044.81;;;5.04;100.00
84528;BME280;74768;51.152;6.196;2023-12-20T03:07:36;101057.06;;;5.00;100.00
84528;BME280;74768;51.152;6.196;2023-12-20T03:10:03;101046.56;;;5.03;100.00
84528;BME280;74768;51.152;6.196;2023-12-20T03:12:28;101042.25;;;4.98;100.00
84528;BME280;74768;51.152;6.196;2023-12-20T03:14:54;101040.53;;;4.97;100.00
84528;BME280;74768;51.152;6.196;2023-12-20T03:17:19;101041.38;;;4.99;100.00
84528;BME280;74768;51.152;6.196;2023-12-20T03:19:45;101028.38;;;4.93;100.00
84528;BME280;74768;51.152;6.196;2023-12-20T03:22:11;101026.66;;;4.90;100.00
84528;BME280;74768;51.152;6.196;2023-12-20T03:24:36;101035.38;;;4.91;100.00
84528;BME280;74768;51.152;6.196;2023-12-20T03:27:01;101022.34;;;4.89;100.00
84528;BME280;74768;51.152;6.196;2023-12-20T03:29:26;101024.03;;;4.90;100.00
84528;BME280;74768;51.152;6.196;2023-12-20T03:31:52;101016.25;;;4.87;100.00
84528;BME280;74768;51.152;6.196;2023-12-20T03:34:17;101033.72;;;4.84;100.00
84528;BME280;74768;51.152;6.196;2023-12-20T03:36:43;101024.25;;;4.75;99.95
84528;BME280;74768;51.152;6.196;2023-12-20T03:39:08;101033.09;;;4.65;99.91
84528;BME280;74768;51.152;6.196;2023-12-20T03:41:35;101033.97;;;4.64;100.00
84528;BME280;74768;51.152;6.196;2023-12-20T03:44:00;101032.03;;;4.81;100.00
84528;BME280;74768;51.152;6.196;2023-12-20T03:46:25;101037.19;;;4.84;100.00
84528;BME280;74768;51.152;6.196;2023-12-20T03:48:51;101020.59;;;4.88;100.00
84528;BME280;74768;51.152;6.196;2023-12-20T03:51:16;101025.84;;;4.88;100.00
84528;BME280;74768;51.152;6.196;2023-12-20T03:53:41;101029.44;;;4.78;100.00
84528;BME280;74768;51.152;6.196;2023-12-20T03:56:07;101029.63;;;4.64;100.00
84528;BME280;74768;51.152;6.196;2023-12-20T03:58:32;101023.63;;;4.55;99.76
84528;BME280;74768;51.152;6.196;2023-12-20T04:00:57;101013.22;;;4.52;99.60
84528;BME280;74768;51.152;6.196;2023-12-20T04:03:22;101001.03;;;4.49;100.00
84528;BME280;74768;51.152;6.196;2023-12-20T04:05:48;101001.94;;;4.47;99.87
84528;BME280;74768;51.152;6.196;2023-12-20T04:08:13;101011.59;;;4.42;99.99
84528;BME280;74768;51.152;6.196;2023-12-20T04:10:38;101009.84;;;4.41;100.00
84528;BME280;74768;51.152;6.196;2023-12-20T04:13:04;101012.47;;;4.41;100.00
84528;BME280;74768;51.152;6.196;2023-12-20T04:15:29;101013.22;;;4.52;100.00
84528;BME280;74768;51.152;6.196;2023-12-20T04:17:55;101023.59;;;4.56;100.00
84528;BME280;74768;51.152;6.196;2023-12-20T04:20:20;101026.22;;;4.55;100.00
84528;BME280;74768;51.152;6.196;2023-12-20T04:22:45;101027.97;;;4.54;99.88
84528;BME280;74768;51.152;6.196;2023-12-20T04:25:11;101026.25;;;4.53;99.59
84528;BME280;74768;51.152;6.196;2023-12-20T04:27:36;101023.69;;;4.52;99.98
84528;BME280;74768;51.152;6.196;2023-12-20T04:30:01;101028.13;;;4.42;99.38
84528;BME280;74768;51.152;6.196;2023-12-20T04:32:26;101031.63;;;4.41;100.00
84528;BME280;74768;51.152;6.196;2023-12-20T04:34:52;101022.94;;;4.39;100.00
84528;BME280;74768;51.152;6.196;2023-12-20T04:37:17;101029.88;;;4.42;100.00
84528;BME280;74768;51.152;6.196;2023-12-20T04:39:42;101022.72;;;4.57;100.00
84528;BME280;74768;51.152;6.196;2023-12-20T04:42:08;101027.97;;;4.57;100.00
84528;BME280;74768;51.152;6.196;2023-12-20T04:44:33;101036.59;;;4.64;100.00
84528;BME280;74768;51.152;6.196;2023-12-20T04:46:59;101029.59;;;4.67;100.00
84528;BME280;74768;51.152;6.196;2023-12-20T04:49:24;101036.47;;;4.75;100.00
84528;BME280;74768;51.152;6.196;2023-12-20T04:51:50;101032.03;;;4.81;99.96
84528;BME280;74768;51.152;6.196;2023-12-20T04:54:15;101036.41;;;4.78;100.00
84528;BME280;74768;51.152;6.196;2023-12-20T04:56:41;101033.81;;;4.78;100.00
84528;BME280;74768;51.152;6.196;2023-12-20T04:59:06;101037.19;;;4.84;100.00
84528;BME280;74768;51.152;6.196;2023-12-20T05:01:32;101037.19;;;4.86;100.00
84528;BME280;74768;51.152;6.196;2023-12-20T05:03:57;101029.28;;;4.90;100.00
84528;BME280;74768;51.152;6.196;2023-12-20T05:06:22;101034.56;;;4.89;100.00
84528;BME280;74768;51.152;6.196;2023-12-20T05:08:47;101036.25;;;4.91;100.00
84528;BME280;74768;51.152;6.196;2023-12-20T05:11:12;101033.53;;;4.97;100.00
84528;BME280;74768;51.152;6.196;2023-12-20T05:13:39;101022.97;;;5.05;100.00
84528;BME280;74768;51.152;6.196;2023-12-20T05:16:05;101029.94;;;5.07;100.00
84528;BME280;74768;51.152;6.196;2023-12-20T05:18:30;101032.56;;;5.04;100.00
84528;BME280;74768;51.152;6.196;2023-12-20T05:20:55;101030.78;;;5.08;100.00
84528;BME280;74768;51.152;6.196;2023-12-20T05:23:21;101021.22;;;5.07;99.92
84528;BME280;74768;51.152;6.196;2023-12-20T05:25:46;101020.34;;;5.06;99.97
84528;BME280;74768;51.152;6.196;2023-12-20T05:28:11;101015.97;;;5.07;99.78
84528;BME280;74768;51.152;6.196;2023-12-20T05:30:37;101021.22;;;5.05;100.00
84528;BME280;74768;51.152;6.196;2023-12-20T05:33:02;101024.59;;;5.14;100.00
84528;BME280;74768;51.152;6.196;2023-12-20T05:35:27;101022.88;;;5.13;99.62
84528;BME280;74768;51.152;6.196;2023-12-20T05:37:52;101018.47;;;5.16;100.00
84528;BME280;74768;51.152;6.196;2023-12-20T05:40:18;101017.63;;;5.13;99.94
84528;BME280;74768;51.152;6.196;2023-12-20T05:42:43;101001.94;;;5.14;100.00
84528;BME280;74768;51.152;6.196;2023-12-20T05:45:09;101006.31;;;5.12;100.00
84528;BME280;74768;51.152;6.196;2023-12-20T05:47:34;101019.34;;;5.17;100.00
84528;BME280;74768;51.152;6.196;2023-12-20T05:49:59;101014.97;;;5.19;99.66
84528;BME280;74768;51.152;6.196;2023-12-20T05:52:25;101009.69;;;5.20;99.32
84528;BME280;74768;51.152;6.196;2023-12-20T05:54:50;101008.78;;;5.21;100.00
84528;BME280;74768;51.152;6.196;2023-12-20T05:57:15;101011.47;;;5.18;99.75
84528;BME280;74768;51.152;6.196;2023-12-20T05:59:41;101018.41;;;5.19;100.00
84528;BME280;74768;51.152;6.196;2023-12-20T06:02:06;101020.13;;;5.23;99.93
84528;BME280;74768;51.152;6.196;2023-12-20T06:04:32;101024.47;;;5.23;99.58
84528;BME280;74768;51.152;6.196;2023-12-20T06:06:57;101025.28;;;5.28;99.92
84528;BME280;74768;51.152;6.196;2023-12-20T06:09:22;101017.50;;;5.23;99.40
84528;BME280;74768;51.152;6.196;2023-12-20T06:11:48;101017.44;;;5.26;99.51
84528;BME280;74768;51.152;6.196;2023-12-20T06:14:13;101024.44;;;5.26;99.45
84528;BME280;74768;51.152;6.196;2023-12-20T06:16:39;101031.44;;;5.25;99.28
84528;BME280;74768;51.152;6.196;2023-12-20T06:19:04;101029.59;;;5.30;99.45
84528;BME280;74768;51.152;6.196;2023-12-20T06:21:29;101033.97;;;5.31;99.04
84528;BME280;74768;51.152;6.196;2023-12-20T06:23:54;101040.00;;;5.35;98.56
84528;BME280;74768;51.152;6.196;2023-12-20T06:26:20;101038.25;;;5.35;98.14
84528;BME280;74768;51.152;6.196;2023-12-20T06:28:45;101039.97;;;5.36;98.27
84528;BME280;74768;51.152;6.196;2023-12-20T06:31:11;101037.31;;;5.39;98.14
84528;BME280;74768;51.152;6.196;2023-12-20T06:33:36;101032.09;;;5.39;98.33
84528;BME280;74768;51.152;6.196;2023-12-20T06:36:01;101034.72;;;5.38;97.84
84528;BME280;74768;51.152;6.196;2023-12-20T06:38:26;101033.03;;;5.34;98.14
84528;BME280;74768;51.152;6.196;2023-12-20T06:40:52;101046.06;;;5.38;98.10
84528;BME280;74768;51.152;6.196;2023-12-20T06:43:17;101031.16;;;5.43;98.37
84528;BME280;74768;51.152;6.196;2023-12-20T06:45:42;101035.59;;;5.38;98.17
84528;BME280;74768;51.152;6.196;2023-12-20T06:48:08;101036.47;;;5.39;97.83
84528;BME280;74768;51.152;6.196;2023-12-20T06:50:33;101030.22;;;5.47;97.85
84528;BME280;74768;51.152;6.196;2023-12-20T06:52:58;101035.53;;;5.41;97.79
84528;BME280;74768;51.152;6.196;2023-12-20T06:55:24;101031.16;;;5.42;98.23
84528;BME280;74768;51.152;6.196;2023-12-20T06:57:49;101035.53;;;5.41;97.74
84528;BME280;74768;51.152;6.196;2023-12-20T07:00:15;101023.28;;;5.45;97.40
84528;BME280;74768;51.152;6.196;2023-12-20T07:02:40;101024.19;;;5.41;97.74
84528;BME280;74768;51.152;6.196;2023-12-20T07:05:06;101021.56;;;5.42;97.40
84528;BME280;74768;51.152;6.196;2023-12-20T07:07:31;101026.03;;;5.36;97.92
84528;BME280;74768;51.152;6.196;2023-12-20T07:09:56;101030.34;;;5.38;98.00
84528;BME280;74768;51.152;6.196;2023-12-20T07:12:22;101034.75;;;5.36;97.92
84528;BME280;74768;51.152;6.196;2023-12-20T07:14:47;101019.06;;;5.33;97.70
84528;BME280;74768;51.152;6.196;2023-12-20T07:17:12;101024.28;;;5.36;97.53
84528;BME280;74768;51.152;6.196;2023-12-20T07:19:40;101021.72;;;5.32;96.79
84528;BME280;74768;51.152;6.196;2023-12-20T07:22:06;101026.13;;;5.30;97.29
84528;BME280;74768;51.152;6.196;2023-12-20T07:24:32;101020.97;;;5.24;97.17
84528;BME280;74768;51.152;6.196;2023-12-20T07:26:57;101029.72;;;5.21;97.69
84528;BME280;74768;51.152;6.196;2023-12-20T07:29:22;101022.91;;;5.11;97.60
84528;BME280;74768;51.152;6.196;2023-12-20T07:31:48;101025.66;;;5.00;97.54
84528;BME280;74768;51.152;6.196;2023-12-20T07:34:13;101025.75;;;4.93;97.95
84528;BME280;74768;51.152;6.196;2023-12-20T07:36:38;101026.56;;;4.98;97.36
84528;BME280;74768;51.152;6.196;2023-12-20T07:39:04;101020.53;;;4.94;97.20
84528;BME280;74768;51.152;6.196;2023-12-20T07:41:29;101028.50;;;4.84;98.11
84528;BME280;74768;51.152;6.196;2023-12-20T07:43:54;101035.53;;;4.80;98.15
84528;BME280;74768;51.152;6.196;2023-12-20T07:46:21;101037.31;;;4.75;98.10
84528;BME280;74768;51.152;6.196;2023-12-20T07:48:48;101030.44;;;4.68;98.12
84528;BME280;74768;51.152;6.196;2023-12-20T07:51:13;101034.75;;;4.74;98.63
84528;BME280;74768;51.152;6.196;2023-12-20T07:53:39;101040.69;;;4.85;98.83
84528;BME280;74768;51.152;6.196;2023-12-20T07:56:16;101032.75;;;4.92;98.04
84528;BME280;74768;51.152;6.196;2023-12-20T07:58:42;101033.53;;;4.99;97.80
84528;BME280;74768;51.152;6.196;2023-12-20T08:01:08;101025.56;;;5.06;97.17
84528;BME280;74768;51.152;6.196;2023-12-20T08:03:33;101029.06;;;5.05;97.07
84528;BME280;74768;51.152;6.196;2023-12-20T08:05:58;101029.97;;;5.04;97.14
84528;BME280;74768;51.152;6.196;2023-12-20T08:08:25;101029.13;;;5.04;97.15
84528;BME280;74768;51.152;6.196;2023-12-20T08:10:50;101017.75;;;5.05;97.74
84528;BME280;74768;51.152;6.196;2023-12-20T08:13:15;101032.53;;;5.09;97.63
84528;BME280;74768;51.152;6.196;2023-12-20T08:15:41;101027.28;;;5.11;97.44
84528;BME280;74768;51.152;6.196;2023-12-20T08:18:06;101035.09;;;5.12;96.99
84528;BME280;74768;51.152;6.196;2023-12-20T08:20:31;101036.03;;;5.06;96.31
84528;BME280;74768;51.152;6.196;2023-12-20T08:22:57;101030.88;;;5.02;97.31
84528;BME280;74768;51.152;6.196;2023-12-20T08:25:22;101027.22;;;5.12;97.13
84528;BME280;74768;51.152;6.196;2023-12-20T08:27:47;101030.59;;;5.22;97.38
84528;BME280;74768;51.152;6.196;2023-12-20T08:30:12;101031.38;;;5.27;96.66
84528;BME280;74768;51.152;6.196;2023-12-20T08:32:38;101043.53;;;5.32;96.74
84528;BME280;74768;51.152;6.196;2023-12-20T08:35:04;101034.75;;;5.35;96.06
84528;BME280;74768;51.152;6.196;2023-12-20T08:37:29;101049.59;;;5.34;95.79
84528;BME280;74768;51.152;6.196;2023-12-20T08:39:55;101052.19;;;5.36;95.90
84528;BME280;74768;51.152;6.196;2023-12-20T08:42:21;101058.38;;;5.30;96.62
84528;BME280;74768;51.152;6.196;2023-12-20T08:44:46;101052.28;;;5.31;96.77
84528;BME280;74768;51.152;6.196;2023-12-20T08:47:11;101056.63;;;5.32;96.28
84528;BME280;74768;51.152;6.196;2023-12-20T08:49:38;101061.00;;;5.32;96.65
84528;BME280;74768;51.152;6.196;2023-12-20T08:52:04;101051.38;;;5.32;96.30
84528;BME280;74768;51.152;6.196;2023-12-20T08:54:30;101047.81;;;5.38;95.45
84528;BME280;74768;51.152;6.196;2023-12-20T08:56:55;101053.91;;;5.40;95.39
84528;BME280;74768;51.152;6.196;2023-12-20T08:59:20;101046.91;;;5.40;95.17
84528;BME280;74768;51.152;6.196;2023-12-20T09:01:45;101050.34;;;5.42;94.90
84528;BME280;74768;51.152;6.196;2023-12-20T09:04:13;101038.22;;;5.38;95.67
84528;BME280;74768;51.152;6.196;2023-12-20T09:06:38;101040.75;;;5.41;95.47
84528;BME280;74768;51.152;6.196;2023-12-20T09:09:03;101029.44;;;5.41;95.39
84528;BME280;74768;51.152;6.196;2023-12-20T09:11:29;101026.78;;;5.42;95.74
84528;BME280;74768;51.152;6.196;2023-12-20T09:13:54;101025.00;;;5.46;95.72
84528;BME280;74768;51.152;6.196;2023-12-20T09:16:19;101023.28;;;5.45;96.03
84528;BME280;74768;51.152;6.196;2023-12-20T09:18:45;101018.91;;;5.45;95.71
84528;BME280;74768;51.152;6.196;2023-12-20T09:21:10;101014.44;;;5.51;95.08
84528;BME280;74768;51.152;6.196;2023-12-20T09:23:35;101010.94;;;5.53;95.02
84528;BME280;74768;51.152;6.196;2023-12-20T09:26:02;101015.31;;;5.53;95.33
84528;BME280;74768;51.152;6.196;2023-12-20T09:28:27;101023.16;;;5.53;95.07
84528;BME280;74768;51.152;6.196;2023-12-20T09:30:53;101021.34;;;5.56;95.29
84528;BME280;74768;51.152;6.196;2023-12-20T09:33:18;101017.72;;;5.65;93.95
84528;BME280;74768;51.152;6.196;2023-12-20T09:35:43;101013.25;;;5.71;94.63
84528;BME280;74768;51.152;6.196;2023-12-20T09:38:09;101025.44;;;5.74;94.65
84528;BME280;74768;51.152;6.196;2023-12-20T09:40:34;101021.81;;;5.81;93.68
84528;BME280;74768;51.152;6.196;2023-12-20T09:43:15;101020.09;;;5.80;93.95
84528;BME280;74768;51.152;6.196;2023-12-20T09:45:47;101030.53;;;5.83;94.41
84528;BME280;74768;51.152;6.196;2023-12-20T09:48:13;101042.66;;;5.87;94.69
84528;BME280;74768;51.152;6.196;2023-12-20T09:50:41;101039.19;;;5.88;94.00
84528;BME280;74768;51.152;6.196;2023-12-20T09:53:09;101027.69;;;5.97;92.76
84528;BME280;74768;51.152;6.196;2023-12-20T09:55:36;101024.19;;;5.98;93.68
84528;BME280;74768;51.152;6.196;2023-12-20T09:58:01;101025.97;;;5.94;93.52
84528;BME280;74768;51.152;6.196;2023-12-20T10:00:27;101031.19;;;5.96;93.00
84528;BME280;74768;51.152;6.196;2023-12-20T10:05:26;101029.44;;;5.98;93.46
84528;BME280;74768;51.152;6.196;2023-12-20T10:07:51;101022.47;;;5.95;93.26
84528;BME280;74768;51.152;6.196;2023-12-20T10:10:17;101022.56;;;5.91;93.33
84528;BME280;74768;51.152;6.196;2023-12-20T10:13:03;101020.91;;;5.83;93.70
84528;BME280;74768;51.152;6.196;2023-12-20T10:15:29;101030.47;;;5.88;93.33
84528;BME280;74768;51.152;6.196;2023-12-20T10:17:56;101030.44;;;5.89;93.85
84528;BME280;74768;51.152;6.196;2023-12-20T10:20:21;101028.47;;;6.02;93.12
84528;BME280;74768;51.152;6.196;2023-12-20T10:22:47;101025.13;;;5.94;93.19
84528;BME280;74768;51.152;6.196;2023-12-20T10:25:13;101024.25;;;5.93;93.32
84528;BME280;74768;51.152;6.196;2023-12-20T10:27:39;101021.59;;;5.95;92.50
84528;BME280;74768;51.152;6.196;2023-12-20T10:30:04;101013.63;;;6.01;94.11
84528;BME280;74768;51.152;6.196;2023-12-20T10:32:30;101002.91;;;6.14;93.48
84528;BME280;74768;51.152;6.196;2023-12-20T10:34:56;101009.09;;;6.12;92.12
84528;BME280;74768;51.152;6.196;2023-12-20T10:37:22;101005.47;;;6.19;92.26
84528;BME280;74768;51.152;6.196;2023-12-20T10:39:50;101001.88;;;6.23;91.53
84528;BME280;74768;51.152;6.196;2023-12-20T10:42:18;101005.22;;;6.31;90.78
84528;BME280;74768;51.152;6.196;2023-12-20T10:44:46;100997.22;;;6.37;92.43
84528;BME280;74768;51.152;6.196;2023-12-20T10:47:13;101009.28;;;6.47;91.69
84528;BME280;74768;51.152;6.196;2023-12-20T10:49:39;100998.88;;;6.43;91.31
84528;BME280;74768;51.152;6.196;2023-12-20T10:52:05;100992.84;;;6.38;92.15
84528;BME280;74768;51.152;6.196;2023-12-20T10:54:31;100992.81;;;6.41;91.61
84528;BME280;74768;51.152;6.196;2023-12-20T10:56:57;100991.13;;;6.37;91.77
84528;BME280;74768;51.152;6.196;2023-12-20T10:59:24;100993.00;;;6.30;92.38
84528;BME280;74768;51.152;6.196;2023-12-20T11:01:50;100996.50;;;6.29;92.49
84528;BME280;74768;51.152;6.196;2023-12-20T11:04:19;100998.19;;;6.33;92.08
84528;BME280;74768;51.152;6.196;2023-12-20T11:06:58;100991.25;;;6.29;91.89
84528;BME280;74768;51.152;6.196;2023-12-20T11:09:38;100986.06;;;6.28;92.01
84528;BME280;74768;51.152;6.196;2023-12-20T11:14:47;100974.59;;;6.33;92.66
84528;BME280;74768;51.152;6.196;2023-12-20T11:17:14;100978.22;;;6.28;92.62
84528;BME280;74768;51.152;6.196;2023-12-20T11:22:25;100977.22;;;6.33;91.92
84528;BME280;74768;51.152;6.196;2023-12-20T11:24:52;100971.97;;;6.33;91.81
84528;BME280;74768;51.152;6.196;2023-12-20T11:27:19;100979.84;;;6.33;92.62
84528;BME280;74768;51.152;6.196;2023-12-20T11:29:52;100967.63;;;6.32;92.72
84528;BME280;74768;51.152;6.196;2023-12-20T11:34:59;100972.91;;;6.29;92.53
84528;BME280;74768;51.152;6.196;2023-12-20T11:37:33;100977.25;;;6.32;92.60
84528;BME280;74768;51.152;6.196;2023-12-20T11:40:05;100972.75;;;6.38;92.06
84528;BME280;74768;51.152;6.196;2023-12-20T11:42:39;100964.97;;;6.34;92.05
84528;BME280;74768;51.152;6.196;2023-12-20T11:45:08;100962.34;;;6.35;92.65
84528;BME280;74768;51.152;6.196;2023-12-20T11:47:34;100960.53;;;6.37;92.32
84528;BME280;74768;51.152;6.196;2023-12-20T11:50:00;100963.25;;;6.33;93.32
84528;BME280;74768;51.152;6.196;2023-12-20T11:52:28;100953.63;;;6.33;93.72
84528;BME280;74768;51.152;6.196;2023-12-20T11:54:54;100963.22;;;6.34;93.76
84528;BME280;74768;51.152;6.196;2023-12-20T11:57:19;100958.00;;;6.33;93.29
84528;BME280;74768;51.152;6.196;2023-12-20T11:59:44;100943.91;;;6.38;93.72
84528;BME280;74768;51.152;6.196;2023-12-20T12:02:11;100937.78;;;6.39;93.72
84528;BME280;74768;51.152;6.196;2023-12-20T12:04:37;100945.75;;;6.33;94.12
84528;BME280;74768;51.152;6.196;2023-12-20T12:07:02;100951.91;;;6.32;93.96
84528;BME280;74768;51.152;6.196;2023-12-20T12:09:28;100936.88;;;6.40;93.93
84528;BME280;74768;51.152;6.196;2023-12-20T12:11:54;100938.59;;;6.43;94.25
84528;BME280;74768;51.152;6.196;2023-12-20T12:14:19;100939.41;;;6.43;93.67
84528;BME280;74768;51.152;6.196;2023-12-20T12:16:45;100939.38;;;6.46;93.20
84528;BME280;74768;51.152;6.196;2023-12-20T12:19:24;100932.19;;;6.56;93.16
84528;BME280;74768;51.152;6.196;2023-12-20T12:21:50;100933.91;;;6.57;92.70
84528;BME280;74768;51.152;6.196;2023-12-20T12:24:20;100928.72;;;6.54;92.54
84528;BME280;74768;51.152;6.196;2023-12-20T12:26:51;100914.78;;;6.52;92.83
84528;BME280;74768;51.152;6.196;2023-12-20T12:29:17;100914.84;;;6.49;92.87
84528;BME280;74768;51.152;6.196;2023-12-20T12:31:42;100921.00;;;6.48;93.04
84528;BME280;74768;51.152;6.196;2023-12-20T12:34:07;100914.91;;;6.46;94.03
84528;BME280;74768;51.152;6.196;2023-12-20T12:36:34;100909.66;;;6.46;93.86
84528;BME280;74768;51.152;6.196;2023-12-20T12:39:02;100910.66;;;6.40;93.46
84528;BME280;74768;51.152;6.196;2023-12-20T12:41:30;100905.50;;;6.36;94.37
84528;BME280;74768;51.152;6.196;2023-12-20T12:43:55;100900.19;;;6.39;94.90
84528;BME280;74768;51.152;6.196;2023-12-20T12:46:20;100904.25;;;6.53;95.21
84528;BME280;74768;51.152;6.196;2023-12-20T12:48:46;100906.75;;;6.59;94.05
84528;BME280;74768;51.152;6.196;2023-12-20T12:51:12;100908.31;;;6.68;93.24
84528;BME280;74768;51.152;6.196;2023-12-20T12:53:39;100901.34;;;6.65;93.58
84528;BME280;74768;51.152;6.196;2023-12-20T12:56:05;100894.34;;;6.66;94.05
84528;BME280;74768;51.152;6.196;2023-12-20T12:58:31;100898.78;;;6.64;94.66
84528;BME280;74768;51.152;6.196;2023-12-20T13:00:57;100894.47;;;6.61;94.13